Portada
METAR-TAF:

METAR-TAF

Aeroports :

San Pedro Sula, Hondures

latitud: 15-27N, longitud: 087-56W, altitud: 31 m

Observació

L'informe es va fer fa 1 hora i 8 minuts, a les 23:00 UTC
Vent 7 kt del Nord/Nord-Est
Temperatura 26°C
Humitat 70%
Pressió 1013 hPa
Visibilitat 10 km o més
Núvols disperses a una alçada de 2600 ft

METAR: MHLM 052300Z 03007KT 9999 SCT026 26/20 Q1013 A2992 NOSIG

Hora: 18:08 (00:08 UTC)

Pronòstic

L'informe es va fer fa 7 hores i 8 minuts, a les 17:00 UTC
Pronòstic vàlid del 05 a les 18 UTC al 06 a les 18 UTC
Vent 10 kt del Nord-Est
Visibilitat 10 km o més
Núvols disperses a una alçada de 2800 ft
Evolucionant progressivament
l' 06 a les 01 UTC al 06 a les 03 UTC
Vent 3 kt amb direcció variable

TAF: MHLM 051700Z 0518/0618 05010KT 9999 SCT028 TX31/0520Z TN22/0612Z BECMG 0601/0603 VRB03KT

Observacions i pronòstics meteorològics de més de 4000 aeroports (METAR i TAF).

Les estacions disponibles són els punts grocs i vermells al mapa.

Posi el ratolí al punt desitjat per veure el nom de l'estació.

Feu clic per veure les observacions i els pronòstics meteorològics.

Per canviar el mapa: feu clic els botons verds amb una creu de color negre per apropar; al botó verd amb un guió per allunyar la imatge; o en les fletxes verdes per a mapes adjacents.


METAR-TAF: